Aeroporto :
LOGIN :

Iscrizione | Disclaimer

   EN    FR    IT 

 










Sommario :    VFR   VFR Marginale   IFR   IFR Intensivo   IFR Molto Intensivo
Visibilità : 
Base nubi : 
>= 8 km
>= 3000ft
5 / 8 km
1000 / 3000 ft
1500m / 5 km
500 / 1000 ft
800 / 1500m
200 / 500 ft
< 800m
< 200 ft
Simboli :   Temporali  Nebbia  Neve Forte  Precipitazioni Forti  Vento > 20 kt
SIGMETs :   Varie  Temporali  Ghiacco  Turbolenza  Onda orograficha  Ceneri Vulcaniche







- Altitudine del aeroporto : 52 ft
- Codice IATA : IOM
- Carte del aeroporto


EGNS - Isle of Man

ULTIMO METAR :
  • 190750Z 24008KT 210V270 9999 -RA FEW008 08/07 Q1023 TEMPO 7000 BKN007

METARs OBSOLETI :
  • 190720Z 24009KT 210V270 9999 FEW006 08/08 Q1023 TEMPO 7000 -RADZ BKN006
  • 190650Z 25007KT 220V280 9999 FEW005 SCT030 08/08 Q1023 TEMPO 7000 RADZ BKN005
  • 190620Z 26006KT 230V290 9999 FEW005 OVC030 08/07 Q1023 TEMPO 7000 RADZ BKN007
  • 190550Z 27004KT 9999 FEW008 OVC030 08/07 Q1023 REDZ TEMPO 7000 RADZ BKN007
  • 190520Z 26006KT 9999 -DZ FEW007 BKN024 OVC030 08/08 Q1023 TEMPO 7000 RADZ BKN007
  • 190450Z 27005KT 9999 -DZ FEW007 OVC024 08/08 Q1023 TEMPO 7000 RADZ BKN007

TAF TAF EGNS
Valido dal 19 a 06 ore il 19 a 15 ore UTC


190500Z 1906/1915 24010KT 9999 FEW007 BKN020
TEMPO 1906/1915 7000 -RADZ FEW004 BKN007
PROB40
TEMPO 1906/1915 3000 RADZ BKN004
Nessun NOTAM noto per questo aeroporto.



MetMap, La meteo Aeronautica in un colpo d'occhio ! - Copyright ORBIFLY Dicembre 2007 - Disclaimer

ORBIFLY MET'MAP TEAM :

Programmazione e sviluppo : Alexandra Zaïnal
Concezione e sviluppo : Baudouin d'Aumeries
Co-Programmazione e sviluppo : Marc-Olivier Méhu
Supporto tecnico e logistico : Manuel Goepfert
Aiuto per la traduzione : Arnaldo La Scala

Contatto : metmap@orbifly.com




FONTI E CREDITI :

   NOAA